sensor_id;sensor_type;location;lat;lon;timestamp;temperature;humidity
41547;DHT22;27271;45.412;10.852;2022-09-09T00:02:39;19.30;99.90
41547;DHT22;27271;45.412;10.852;2022-09-09T00:06:26;19.30;99.90
41547;DHT22;27271;45.412;10.852;2022-09-09T00:10:00;19.30;99.90
41547;DHT22;27271;45.412;10.852;2022-09-09T00:13:37;19.30;99.90
41547;DHT22;27271;45.412;10.852;2022-09-09T00:17:08;19.20;99.90
41547;DHT22;27271;45.412;10.852;2022-09-09T00:23:54;18.90;99.90
41547;DHT22;27271;45.412;10.852;2022-09-09T00:27:31;19.00;99.90
41547;DHT22;27271;45.412;10.852;2022-09-09T00:30:56;19.00;99.90
41547;DHT22;27271;45.412;10.852;2022-09-09T00:34:22;19.00;99.90
41547;DHT22;27271;45.412;10.852;2022-09-09T00:37:48;18.90;99.90
41547;DHT22;27271;45.412;10.852;2022-09-09T00:41:21;18.80;99.90
41547;DHT22;27271;45.412;10.852;2022-09-09T00:45:26;18.80;99.90
41547;DHT22;27271;45.412;10.852;2022-09-09T01:04:12;18.60;99.90
41547;DHT22;27271;45.412;10.852;2022-09-09T01:07:38;18.60;99.90
41547;DHT22;27271;45.412;10.852;2022-09-09T01:11:01;18.60;99.90
41547;DHT22;27271;45.412;10.852;2022-09-09T01:18:10;18.50;99.90
41547;DHT22;27271;45.412;10.852;2022-09-09T01:28:52;18.70;99.90
41547;DHT22;27271;45.412;10.852;2022-09-09T01:32:45;18.80;99.90
41547;DHT22;27271;45.412;10.852;2022-09-09T01:36:18;18.90;99.90
41547;DHT22;27271;45.412;10.852;2022-09-09T01:39:45;18.90;99.90
41547;DHT22;27271;45.412;10.852;2022-09-09T01:43:10;19.00;99.90
41547;DHT22;27271;45.412;10.852;2022-09-09T01:46:33;19.00;99.90
41547;DHT22;27271;45.412;10.852;2022-09-09T01:49:55;19.00;99.90
41547;DHT22;27271;45.412;10.852;2022-09-09T01:53:21;19.00;99.90
41547;DHT22;27271;45.412;10.852;2022-09-09T02:00:36;18.80;99.90
41547;DHT22;27271;45.412;10.852;2022-09-09T02:04:11;18.70;99.90
41547;DHT22;27271;45.412;10.852;2022-09-09T02:07:42;18.60;99.90
41547;DHT22;27271;45.412;10.852;2022-09-09T02:11:20;18.60;99.90
41547;DHT22;27271;45.412;10.852;2022-09-09T02:15:05;18.50;99.90
41547;DHT22;27271;45.412;10.852;2022-09-09T02:18:48;18.40;99.90
41547;DHT22;27271;45.412;10.852;2022-09-09T02:22:18;18.30;99.90
41547;DHT22;27271;45.412;10.852;2022-09-09T02:25:41;18.30;99.90
41547;DHT22;27271;45.412;10.852;2022-09-09T02:29:24;18.30;99.90
41547;DHT22;27271;45.412;10.852;2022-09-09T02:32:51;18.30;99.90
41547;DHT22;27271;45.412;10.852;2022-09-09T02:36:16;18.30;99.90
41547;DHT22;27271;45.412;10.852;2022-09-09T02:39:39;18.20;99.90
41547;DHT22;27271;45.412;10.852;2022-09-09T02:43:05;18.20;99.90
41547;DHT22;27271;45.412;10.852;2022-09-09T02:50:17;18.10;99.90
41547;DHT22;27271;45.412;10.852;2022-09-09T02:54:02;18.10;99.90
41547;DHT22;27271;45.412;10.852;2022-09-09T02:57:28;18.10;99.90
41547;DHT22;27271;45.412;10.852;2022-09-09T03:00:52;18.00;99.90
41547;DHT22;27271;45.412;10.852;2022-09-09T03:04:15;18.00;99.90
41547;DHT22;27271;45.412;10.852;2022-09-09T03:07:38;17.90;99.90
41547;DHT22;27271;45.412;10.852;2022-09-09T03:11:03;17.90;99.90
41547;DHT22;27271;45.412;10.852;2022-09-09T03:14:28;17.80;99.90
41547;DHT22;27271;45.412;10.852;2022-09-09T03:17:50;17.70;99.90
41547;DHT22;27271;45.412;10.852;2022-09-09T03:21:14;17.70;99.90
41547;DHT22;27271;45.412;10.852;2022-09-09T03:24:36;17.70;99.90
41547;DHT22;27271;45.412;10.852;2022-09-09T03:27:59;17.70;99.90
41547;DHT22;27271;45.412;10.852;2022-09-09T03:31:22;17.60;99.90
41547;DHT22;27271;45.412;10.852;2022-09-09T03:34:45;17.70;99.90
41547;DHT22;27271;45.412;10.852;2022-09-09T03:38:11;17.60;99.90
41547;DHT22;27271;45.412;10.852;2022-09-09T03:41:33;17.60;99.90
41547;DHT22;27271;45.412;10.852;2022-09-09T03:44:56;17.60;99.90
41547;DHT22;27271;45.412;10.852;2022-09-09T03:48:20;17.60;99.90
41547;DHT22;27271;45.412;10.852;2022-09-09T03:51:43;17.60;99.90
41547;DHT22;27271;45.412;10.852;2022-09-09T03:55:08;17.60;99.90
41547;DHT22;27271;45.412;10.852;2022-09-09T03:58:31;17.50;99.90
41547;DHT22;27271;45.412;10.852;2022-09-09T04:02:01;17.60;99.90
41547;DHT22;27271;45.412;10.852;2022-09-09T04:05:23;17.60;99.90
41547;DHT22;27271;45.412;10.852;2022-09-09T04:08:46;17.60;99.90
41547;DHT22;27271;45.412;10.852;2022-09-09T04:12:10;17.60;99.90
41547;DHT22;27271;45.412;10.852;2022-09-09T04:15:35;17.60;99.90
41547;DHT22;27271;45.412;10.852;2022-09-09T04:18:58;17.50;99.90
41547;DHT22;27271;45.412;10.852;2022-09-09T04:22:21;17.50;99.90
41547;DHT22;27271;45.412;10.852;2022-09-09T04:25:54;17.50;99.90
41547;DHT22;27271;45.412;10.852;2022-09-09T04:29:23;17.50;99.90
41547;DHT22;27271;45.412;10.852;2022-09-09T04:32:52;17.40;99.90
41547;DHT22;27271;45.412;10.852;2022-09-09T04:36:15;17.40;99.90
41547;DHT22;27271;45.412;10.852;2022-09-09T04:39:40;17.40;99.90
41547;DHT22;27271;45.412;10.852;2022-09-09T04:43:03;17.40;99.90
41547;DHT22;27271;45.412;10.852;2022-09-09T04:46:26;17.40;99.90
41547;DHT22;27271;45.412;10.852;2022-09-09T04:49:48;17.50;99.90
41547;DHT22;27271;45.412;10.852;2022-09-09T04:53:11;17.50;99.90
41547;DHT22;27271;45.412;10.852;2022-09-09T04:56:33;17.50;99.90
41547;DHT22;27271;45.412;10.852;2022-09-09T04:59:56;17.60;99.90
41547;DHT22;27271;45.412;10.852;2022-09-09T05:03:18;17.60;99.90
41547;DHT22;27271;45.412;10.852;2022-09-09T05:06:41;17.70;99.90
41547;DHT22;27271;45.412;10.852;2022-09-09T05:10:05;17.80;99.90
41547;DHT22;27271;45.412;10.852;2022-09-09T05:13:27;17.90;99.90
41547;DHT22;27271;45.412;10.852;2022-09-09T05:16:50;18.10;99.90
41547;DHT22;27271;45.412;10.852;2022-09-09T05:20:12;18.20;99.90
41547;DHT22;27271;45.412;10.852;2022-09-09T05:23:38;18.40;99.90
41547;DHT22;27271;45.412;10.852;2022-09-09T05:27:00;18.50;99.90
41547;DHT22;27271;45.412;10.852;2022-09-09T05:30:24;18.70;99.90
41547;DHT22;27271;45.412;10.852;2022-09-09T05:33:48;18.90;99.90
41547;DHT22;27271;45.412;10.852;2022-09-09T05:37:14;19.10;99.90
41547;DHT22;27271;45.412;10.852;2022-09-09T05:40:36;19.40;99.90
41547;DHT22;27271;45.412;10.852;2022-09-09T05:43:59;20.40;99.90
41547;DHT22;27271;45.412;10.852;2022-09-09T05:47:23;22.00;99.90
41547;DHT22;27271;45.412;10.852;2022-09-09T05:50:52;23.80;99.90
41547;DHT22;27271;45.412;10.852;2022-09-09T05:54:16;25.50;99.90
41547;DHT22;27271;45.412;10.852;2022-09-09T05:57:48;27.10;98.80
41547;DHT22;27271;45.412;10.852;2022-09-09T06:05:12;29.70;91.50
41547;DHT22;27271;45.412;10.852;2022-09-09T06:08:37;30.10;87.30
41547;DHT22;27271;45.412;10.852;2022-09-09T06:12:01;30.70;86.00
41547;DHT22;27271;45.412;10.852;2022-09-09T06:15:38;31.50;83.20
41547;DHT22;27271;45.412;10.852;2022-09-09T06:19:01;32.00;79.90
41547;DHT22;27271;45.412;10.852;2022-09-09T06:22:26;32.40;76.00
41547;DHT22;27271;45.412;10.852;2022-09-09T06:30:18;33.10;73.00
41547;DHT22;27271;45.412;10.852;2022-09-09T06:33:42;34.00;71.10
41547;DHT22;27271;45.412;10.852;2022-09-09T06:37:07;33.00;72.70
41547;DHT22;27271;45.412;10.852;2022-09-09T06:40:36;31.50;76.70
41547;DHT22;27271;45.412;10.852;2022-09-09T06:44:00;31.80;75.30
41547;DHT22;27271;45.412;10.852;2022-09-09T06:47:34;32.00;76.60
41547;DHT22;27271;45.412;10.852;2022-09-09T06:51:04;32.90;74.30
41547;DHT22;27271;45.412;10.852;2022-09-09T06:54:34;32.80;73.40
41547;DHT22;27271;45.412;10.852;2022-09-09T06:58:01;32.40;75.70
41547;DHT22;27271;45.412;10.852;2022-09-09T07:01:36;31.90;77.70
41547;DHT22;27271;45.412;10.852;2022-09-09T07:05:03;33.10;73.80
41547;DHT22;27271;45.412;10.852;2022-09-09T07:08:26;33.20;74.90
41547;DHT22;27271;45.412;10.852;2022-09-09T07:11:50;34.40;73.50
41547;DHT22;27271;45.412;10.852;2022-09-09T07:15:16;34.40;72.70
41547;DHT22;27271;45.412;10.852;2022-09-09T07:18:41;34.50;72.20
41547;DHT22;27271;45.412;10.852;2022-09-09T07:22:04;35.50;69.10
41547;DHT22;27271;45.412;10.852;2022-09-09T07:25:44;35.10;68.00
41547;DHT22;27271;45.412;10.852;2022-09-09T07:29:08;34.60;70.80
41547;DHT22;27271;45.412;10.852;2022-09-09T07:32:31;34.40;65.80
41547;DHT22;27271;45.412;10.852;2022-09-09T07:35:54;33.50;70.30
41547;DHT22;27271;45.412;10.852;2022-09-09T07:39:17;33.40;70.10
41547;DHT22;27271;45.412;10.852;2022-09-09T07:42:44;33.10;70.40
41547;DHT22;27271;45.412;10.852;2022-09-09T07:46:13;33.60;70.00
41547;DHT22;27271;45.412;10.852;2022-09-09T07:49:38;32.90;71.30
41547;DHT22;27271;45.412;10.852;2022-09-09T07:53:02;31.30;72.10
41547;DHT22;27271;45.412;10.852;2022-09-09T07:56:28;31.30;72.20
41547;DHT22;27271;45.412;10.852;2022-09-09T07:59:51;31.50;73.40
41547;DHT22;27271;45.412;10.852;2022-09-09T08:03:14;32.10;73.10
41547;DHT22;27271;45.412;10.852;2022-09-09T08:06:41;31.60;72.50
41547;DHT22;27271;45.412;10.852;2022-09-09T08:10:04;31.90;75.50
41547;DHT22;27271;45.412;10.852;2022-09-09T08:13:30;31.90;73.80
41547;DHT22;27271;45.412;10.852;2022-09-09T08:16:53;30.90;73.40
41547;DHT22;27271;45.412;10.852;2022-09-09T08:20:18;31.00;76.30
41547;DHT22;27271;45.412;10.852;2022-09-09T08:23:43;32.30;74.00
41547;DHT22;27271;45.412;10.852;2022-09-09T08:27:19;33.70;70.10
41547;DHT22;27271;45.412;10.852;2022-09-09T08:30:43;33.40;70.30
41547;DHT22;27271;45.412;10.852;2022-09-09T08:34:10;32.60;71.70
41547;DHT22;27271;45.412;10.852;2022-09-09T08:37:33;31.30;72.70
41547;DHT22;27271;45.412;10.852;2022-09-09T08:45:23;31.60;73.80
41547;DHT22;27271;45.412;10.852;2022-09-09T08:49:02;32.10;72.60
41547;DHT22;27271;45.412;10.852;2022-09-09T08:55:58;33.30;74.20
41547;DHT22;27271;45.412;10.852;2022-09-09T08:59:32;34.00;69.30
41547;DHT22;27271;45.412;10.852;2022-09-09T09:03:35;34.00;73.20
41547;DHT22;27271;45.412;10.852;2022-09-09T09:07:03;34.10;72.30
41547;DHT22;27271;45.412;10.852;2022-09-09T09:10:35;34.20;70.70
41547;DHT22;27271;45.412;10.852;2022-09-09T09:14:22;34.50;71.40
41547;DHT22;27271;45.412;10.852;2022-09-09T09:17:48;33.70;70.90
41547;DHT22;27271;45.412;10.852;2022-09-09T09:21:21;33.90;69.20
41547;DHT22;27271;45.412;10.852;2022-09-09T09:28:42;33.50;69.00
41547;DHT22;27271;45.412;10.852;2022-09-09T09:32:14;32.40;70.80
41547;DHT22;27271;45.412;10.852;2022-09-09T09:35:39;31.90;71.80
41547;DHT22;27271;45.412;10.852;2022-09-09T09:39:08;31.40;73.10
41547;DHT22;27271;45.412;10.852;2022-09-09T09:43:02;29.60;73.40
41547;DHT22;27271;45.412;10.852;2022-09-09T09:46:31;27.60;78.10
41547;DHT22;27271;45.412;10.852;2022-09-09T09:50:17;25.30;90.70
41547;DHT22;27271;45.412;10.852;2022-09-09T09:53:44;22.20;99.90
41547;DHT22;27271;45.412;10.852;2022-09-09T09:57:14;20.30;99.90
41547;DHT22;27271;45.412;10.852;2022-09-09T10:00:52;19.30;99.90
41547;DHT22;27271;45.412;10.852;2022-09-09T10:04:26;19.30;99.90
41547;DHT22;27271;45.412;10.852;2022-09-09T10:08:11;19.40;99.90
41547;DHT22;27271;45.412;10.852;2022-09-09T10:12:37;19.60;99.90
41547;DHT22;27271;45.412;10.852;2022-09-09T10:19:32;19.70;99.90
41547;DHT22;27271;45.412;10.852;2022-09-09T10:38:28;20.00;99.90
41547;DHT22;27271;45.412;10.852;2022-09-09T10:42:08;20.10;99.90
41547;DHT22;27271;45.412;10.852;2022-09-09T10:45:43;20.10;99.90
41547;DHT22;27271;45.412;10.852;2022-09-09T10:56:44;20.50;99.90
41547;DHT22;27271;45.412;10.852;2022-09-09T11:00:21;20.60;99.90
41547;DHT22;27271;45.412;10.852;2022-09-09T11:03:45;20.80;99.90
41547;DHT22;27271;45.412;10.852;2022-09-09T11:07:13;21.20;99.90
41547;DHT22;27271;45.412;10.852;2022-09-09T11:18:04;22.30;99.90
41547;DHT22;27271;45.412;10.852;2022-09-09T11:21:37;22.90;99.90
41547;DHT22;27271;45.412;10.852;2022-09-09T11:25:29;23.70;99.90
41547;DHT22;27271;45.412;10.852;2022-09-09T11:29:12;24.80;99.90
41547;DHT22;27271;45.412;10.852;2022-09-09T11:37:03;26.60;99.90
41547;DHT22;27271;45.412;10.852;2022-09-09T11:40:36;26.00;99.90
41547;DHT22;27271;45.412;10.852;2022-09-09T11:45:09;26.30;99.90
41547;DHT22;27271;45.412;10.852;2022-09-09T11:48:35;26.80;99.90
41547;DHT22;27271;45.412;10.852;2022-09-09T11:51:59;26.90;99.90
41547;DHT22;27271;45.412;10.852;2022-09-09T11:55:29;26.70;99.90
41547;DHT22;27271;45.412;10.852;2022-09-09T11:59:06;26.60;99.90
41547;DHT22;27271;45.412;10.852;2022-09-09T12:02:30;27.40;99.90
41547;DHT22;27271;45.412;10.852;2022-09-09T12:06:33;28.20;99.90
41547;DHT22;27271;45.412;10.852;2022-09-09T12:13:30;28.40;97.30
41547;DHT22;27271;45.412;10.852;2022-09-09T12:16:53;28.20;96.80
41547;DHT22;27271;45.412;10.852;2022-09-09T12:20:31;28.00;97.10
41547;DHT22;27271;45.412;10.852;2022-09-09T12:24:08;28.20;96.70
41547;DHT22;27271;45.412;10.852;2022-09-09T12:27:37;27.90;96.70
41547;DHT22;27271;45.412;10.852;2022-09-09T12:31:31;27.90;95.40
41547;DHT22;27271;45.412;10.852;2022-09-09T12:35:04;27.80;95.50
41547;DHT22;27271;45.412;10.852;2022-09-09T12:38:35;27.30;93.90
41547;DHT22;27271;45.412;10.852;2022-09-09T12:41:59;27.40;98.00
41547;DHT22;27271;45.412;10.852;2022-09-09T12:45:26;27.40;95.80
41547;DHT22;27271;45.412;10.852;2022-09-09T12:53:26;27.80;95.40
41547;DHT22;27271;45.412;10.852;2022-09-09T12:56:50;27.20;97.40
41547;DHT22;27271;45.412;10.852;2022-09-09T13:00:22;27.30;98.50
41547;DHT22;27271;45.412;10.852;2022-09-09T13:03:45;27.70;97.80
41547;DHT22;27271;45.412;10.852;2022-09-09T13:07:09;27.70;96.80
41547;DHT22;27271;45.412;10.852;2022-09-09T13:10:35;27.80;92.30
41547;DHT22;27271;45.412;10.852;2022-09-09T13:14:18;27.80;91.50
41547;DHT22;27271;45.412;10.852;2022-09-09T13:17:42;27.20;95.50
41547;DHT22;27271;45.412;10.852;2022-09-09T13:21:05;27.50;91.40
41547;DHT22;27271;45.412;10.852;2022-09-09T13:24:39;27.80;89.00
41547;DHT22;27271;45.412;10.852;2022-09-09T13:28:04;27.90;89.50
41547;DHT22;27271;45.412;10.852;2022-09-09T13:31:32;27.80;92.50
41547;DHT22;27271;45.412;10.852;2022-09-09T13:34:59;28.00;90.30
41547;DHT22;27271;45.412;10.852;2022-09-09T13:38:22;28.00;90.60
41547;DHT22;27271;45.412;10.852;2022-09-09T13:41:55;28.00;84.90
41547;DHT22;27271;45.412;10.852;2022-09-09T13:45:20;27.70;86.10
41547;DHT22;27271;45.412;10.852;2022-09-09T13:49:00;27.70;90.50
41547;DHT22;27271;45.412;10.852;2022-09-09T13:52:23;27.60;90.70
41547;DHT22;27271;45.412;10.852;2022-09-09T13:55:48;27.90;87.20
41547;DHT22;27271;45.412;10.852;2022-09-09T13:59:22;28.00;85.30
41547;DHT22;27271;45.412;10.852;2022-09-09T14:03:14;28.20;86.20
41547;DHT22;27271;45.412;10.852;2022-09-09T14:06:43;28.20;82.30
41547;DHT22;27271;45.412;10.852;2022-09-09T14:10:11;28.20;83.10
41547;DHT22;27271;45.412;10.852;2022-09-09T14:13:33;28.40;81.40
41547;DHT22;27271;45.412;10.852;2022-09-09T14:16:55;28.20;84.80
41547;DHT22;27271;45.412;10.852;2022-09-09T14:20:17;28.10;86.90
41547;DHT22;27271;45.412;10.852;2022-09-09T14:23:39;28.30;81.30
41547;DHT22;27271;45.412;10.852;2022-09-09T14:27:02;28.30;80.90
41547;DHT22;27271;45.412;10.852;2022-09-09T14:30:24;28.40;83.20
41547;DHT22;27271;45.412;10.852;2022-09-09T14:33:52;28.40;80.70
41547;DHT22;27271;45.412;10.852;2022-09-09T14:37:15;28.40;80.40
41547;DHT22;27271;45.412;10.852;2022-09-09T14:40:38;28.50;81.00
41547;DHT22;27271;45.412;10.852;2022-09-09T14:44:00;28.50;75.70
41547;DHT22;27271;45.412;10.852;2022-09-09T14:47:22;28.20;80.40
41547;DHT22;27271;45.412;10.852;2022-09-09T14:50:44;28.00;78.70
41547;DHT22;27271;45.412;10.852;2022-09-09T14:54:06;27.80;84.00
41547;DHT22;27271;45.412;10.852;2022-09-09T14:57:28;28.00;79.30
41547;DHT22;27271;45.412;10.852;2022-09-09T15:00:50;28.00;79.90
41547;DHT22;27271;45.412;10.852;2022-09-09T15:04:13;28.00;77.20
41547;DHT22;27271;45.412;10.852;2022-09-09T15:07:39;27.80;79.70
41547;DHT22;27271;45.412;10.852;2022-09-09T15:11:02;27.90;76.80
41547;DHT22;27271;45.412;10.852;2022-09-09T15:14:24;28.00;81.80
41547;DHT22;27271;45.412;10.852;2022-09-09T15:17:47;27.80;80.30
41547;DHT22;27271;45.412;10.852;2022-09-09T15:21:17;27.80;84.40
41547;DHT22;27271;45.412;10.852;2022-09-09T15:24:40;27.60;83.00
41547;DHT22;27271;45.412;10.852;2022-09-09T15:28:02;27.50;81.10
41547;DHT22;27271;45.412;10.852;2022-09-09T15:31:29;27.30;81.90
41547;DHT22;27271;45.412;10.852;2022-09-09T15:34:52;27.20;80.20
41547;DHT22;27271;45.412;10.852;2022-09-09T15:38:15;27.10;85.00
41547;DHT22;27271;45.412;10.852;2022-09-09T15:41:39;27.00;82.70
41547;DHT22;27271;45.412;10.852;2022-09-09T15:45:02;26.90;80.30
41547;DHT22;27271;45.412;10.852;2022-09-09T15:48:30;26.70;84.80
41547;DHT22;27271;45.412;10.852;2022-09-09T15:51:58;26.40;81.00
41547;DHT22;27271;45.412;10.852;2022-09-09T15:55:20;26.20;86.50
41547;DHT22;27271;45.412;10.852;2022-09-09T15:58:42;26.00;86.40
41547;DHT22;27271;45.412;10.852;2022-09-09T16:02:05;26.00;87.80
41547;DHT22;27271;45.412;10.852;2022-09-09T16:05:28;25.80;88.40
41547;DHT22;27271;45.412;10.852;2022-09-09T16:08:52;25.70;88.20
41547;DHT22;27271;45.412;10.852;2022-09-09T16:12:14;25.60;90.10
41547;DHT22;27271;45.412;10.852;2022-09-09T16:15:37;25.50;90.50
41547;DHT22;27271;45.412;10.852;2022-09-09T16:19:06;25.40;90.50
41547;DHT22;27271;45.412;10.852;2022-09-09T16:22:28;25.30;91.00
41547;DHT22;27271;45.412;10.852;2022-09-09T16:25:56;25.30;92.00
41547;DHT22;27271;45.412;10.852;2022-09-09T16:29:24;25.30;91.80
41547;DHT22;27271;45.412;10.852;2022-09-09T16:32:48;25.00;92.60
41547;DHT22;27271;45.412;10.852;2022-09-09T16:36:25;24.90;92.20
41547;DHT22;27271;45.412;10.852;2022-09-09T16:39:48;24.70;91.80
41547;DHT22;27271;45.412;10.852;2022-09-09T16:43:12;24.60;93.00
41547;DHT22;27271;45.412;10.852;2022-09-09T16:46:37;24.50;92.90
41547;DHT22;27271;45.412;10.852;2022-09-09T16:50:00;24.30;93.40
41547;DHT22;27271;45.412;10.852;2022-09-09T16:53:22;24.20;93.00
41547;DHT22;27271;45.412;10.852;2022-09-09T16:56:46;24.00;93.90
41547;DHT22;27271;45.412;10.852;2022-09-09T17:00:09;23.90;93.40
41547;DHT22;27271;45.412;10.852;2022-09-09T17:03:31;23.70;94.20
41547;DHT22;27271;45.412;10.852;2022-09-09T17:06:54;23.60;94.20
41547;DHT22;27271;45.412;10.852;2022-09-09T17:10:18;23.40;95.60
41547;DHT22;27271;45.412;10.852;2022-09-09T17:13:42;23.30;95.80
41547;DHT22;27271;45.412;10.852;2022-09-09T17:17:04;23.20;95.50
41547;DHT22;27271;45.412;10.852;2022-09-09T17:20:46;23.10;96.30
41547;DHT22;27271;45.412;10.852;2022-09-09T17:24:10;22.90;97.50
41547;DHT22;27271;45.412;10.852;2022-09-09T17:27:32;22.80;99.00
41547;DHT22;27271;45.412;10.852;2022-09-09T17:30:58;22.70;98.80
41547;DHT22;27271;45.412;10.852;2022-09-09T17:34:24;22.50;99.80
41547;DHT22;27271;45.412;10.852;2022-09-09T17:37:47;22.30;99.20
41547;DHT22;27271;45.412;10.852;2022-09-09T17:41:10;22.20;98.60
41547;DHT22;27271;45.412;10.852;2022-09-09T17:44:33;22.10;98.50
41547;DHT22;27271;45.412;10.852;2022-09-09T17:47:55;22.00;98.80
41547;DHT22;27271;45.412;10.852;2022-09-09T17:51:20;21.90;98.60
41547;DHT22;27271;45.412;10.852;2022-09-09T17:54:45;21.80;98.80
41547;DHT22;27271;45.412;10.852;2022-09-09T17:58:07;21.70;99.30
41547;DHT22;27271;45.412;10.852;2022-09-09T18:01:31;21.60;99.90
41547;DHT22;27271;45.412;10.852;2022-09-09T18:04:55;21.60;99.90
41547;DHT22;27271;45.412;10.852;2022-09-09T18:08:17;21.50;99.90
41547;DHT22;27271;45.412;10.852;2022-09-09T18:11:42;21.40;99.90
41547;DHT22;27271;45.412;10.852;2022-09-09T18:15:06;21.40;99.90
41547;DHT22;27271;45.412;10.852;2022-09-09T18:18:28;21.30;99.90
41547;DHT22;27271;45.412;10.852;2022-09-09T18:21:51;21.20;99.90
41547;DHT22;27271;45.412;10.852;2022-09-09T18:25:13;21.30;99.90
41547;DHT22;27271;45.412;10.852;2022-09-09T18:28:40;21.20;99.90
41547;DHT22;27271;45.412;10.852;2022-09-09T18:32:02;21.10;99.90
41547;DHT22;27271;45.412;10.852;2022-09-09T18:35:24;21.00;99.90
41547;DHT22;27271;45.412;10.852;2022-09-09T18:38:47;20.80;99.90
41547;DHT22;27271;45.412;10.852;2022-09-09T18:42:09;20.70;99.90
41547;DHT22;27271;45.412;10.852;2022-09-09T18:45:35;20.60;99.90
41547;DHT22;27271;45.412;10.852;2022-09-09T18:48:58;20.70;99.90
41547;DHT22;27271;45.412;10.852;2022-09-09T18:52:20;20.70;99.90
41547;DHT22;27271;45.412;10.852;2022-09-09T18:55:42;20.70;99.90
41547;DHT22;27271;45.412;10.852;2022-09-09T18:59:07;20.70;99.90
41547;DHT22;27271;45.412;10.852;2022-09-09T19:02:29;20.70;99.90
41547;DHT22;27271;45.412;10.852;2022-09-09T19:05:52;20.80;99.90
41547;DHT22;27271;45.412;10.852;2022-09-09T19:09:15;20.80;99.90
41547;DHT22;27271;45.412;10.852;2022-09-09T19:12:38;20.80;99.90
41547;DHT22;27271;45.412;10.852;2022-09-09T19:19:30;20.60;99.90
41547;DHT22;27271;45.412;10.852;2022-09-09T19:22:53;20.50;99.90
41547;DHT22;27271;45.412;10.852;2022-09-09T19:26:14;20.40;99.90
41547;DHT22;27271;45.412;10.852;2022-09-09T19:29:37;20.30;99.90
41547;DHT22;27271;45.412;10.852;2022-09-09T19:33:00;20.20;99.90
41547;DHT22;27271;45.412;10.852;2022-09-09T19:36:23;20.10;99.90
41547;DHT22;27271;45.412;10.852;2022-09-09T19:39:46;20.00;99.90
41547;DHT22;27271;45.412;10.852;2022-09-09T19:43:08;19.90;99.90
41547;DHT22;27271;45.412;10.852;2022-09-09T19:46:33;19.90;99.90
41547;DHT22;27271;45.412;10.852;2022-09-09T19:49:55;19.90;99.90
41547;DHT22;27271;45.412;10.852;2022-09-09T19:53:17;19.90;99.90
41547;DHT22;27271;45.412;10.852;2022-09-09T19:56:41;19.90;99.90
41547;DHT22;27271;45.412;10.852;2022-09-09T20:00:03;19.90;99.90
41547;DHT22;27271;45.412;10.852;2022-09-09T20:03:34;19.90;99.90
41547;DHT22;27271;45.412;10.852;2022-09-09T20:06:56;19.90;99.90
41547;DHT22;27271;45.412;10.852;2022-09-09T20:10:18;19.90;99.90
41547;DHT22;27271;45.412;10.852;2022-09-09T20:13:41;19.90;99.90
41547;DHT22;27271;45.412;10.852;2022-09-09T20:17:04;19.80;99.90
41547;DHT22;27271;45.412;10.852;2022-09-09T20:20:26;19.80;99.90
41547;DHT22;27271;45.412;10.852;2022-09-09T20:23:50;19.80;99.90
41547;DHT22;27271;45.412;10.852;2022-09-09T20:27:12;20.00;99.90
41547;DHT22;27271;45.412;10.852;2022-09-09T20:30:34;20.10;99.90
41547;DHT22;27271;45.412;10.852;2022-09-09T20:33:58;20.10;99.90
41547;DHT22;27271;45.412;10.852;2022-09-09T20:37:20;20.20;99.90
41547;DHT22;27271;45.412;10.852;2022-09-09T20:40:44;20.20;99.90
41547;DHT22;27271;45.412;10.852;2022-09-09T20:44:12;20.20;99.90
41547;DHT22;27271;45.412;10.852;2022-09-09T20:47:35;20.20;99.90
41547;DHT22;27271;45.412;10.852;2022-09-09T20:51:04;20.10;99.90
41547;DHT22;27271;45.412;10.852;2022-09-09T20:54:28;20.10;99.90
41547;DHT22;27271;45.412;10.852;2022-09-09T20:57:53;20.20;99.90
41547;DHT22;27271;45.412;10.852;2022-09-09T21:01:16;20.20;99.90
41547;DHT22;27271;45.412;10.852;2022-09-09T21:04:39;20.30;99.90
41547;DHT22;27271;45.412;10.852;2022-09-09T21:08:01;20.40;99.90
41547;DHT22;27271;45.412;10.852;2022-09-09T21:11:23;20.40;99.90
41547;DHT22;27271;45.412;10.852;2022-09-09T21:14:45;20.40;99.90
41547;DHT22;27271;45.412;10.852;2022-09-09T21:18:08;20.00;99.90
41547;DHT22;27271;45.412;10.852;2022-09-09T21:21:30;19.50;99.90
41547;DHT22;27271;45.412;10.852;2022-09-09T21:24:52;19.30;99.90
41547;DHT22;27271;45.412;10.852;2022-09-09T21:28:15;19.30;99.90
41547;DHT22;27271;45.412;10.852;2022-09-09T21:31:37;19.30;99.90
41547;DHT22;27271;45.412;10.852;2022-09-09T21:34:59;19.10;99.90
41547;DHT22;27271;45.412;10.852;2022-09-09T21:38:23;18.80;99.90
41547;DHT22;27271;45.412;10.852;2022-09-09T21:41:46;18.60;99.90
41547;DHT22;27271;45.412;10.852;2022-09-09T21:45:08;18.50;99.90
41547;DHT22;27271;45.412;10.852;2022-09-09T21:48:30;18.50;99.90
41547;DHT22;27271;45.412;10.852;2022-09-09T21:51:52;18.50;99.90
41547;DHT22;27271;45.412;10.852;2022-09-09T21:55:15;18.40;99.90
41547;DHT22;27271;45.412;10.852;2022-09-09T21:58:37;18.20;99.90
41547;DHT22;27271;45.412;10.852;2022-09-09T22:02:00;18.10;99.90
41547;DHT22;27271;45.412;10.852;2022-09-09T22:05:22;18.10;99.90
41547;DHT22;27271;45.412;10.852;2022-09-09T22:08:45;18.00;99.90
41547;DHT22;27271;45.412;10.852;2022-09-09T22:12:07;18.10;99.90
41547;DHT22;27271;45.412;10.852;2022-09-09T22:15:29;18.10;99.90
41547;DHT22;27271;45.412;10.852;2022-09-09T22:18:55;18.10;99.90
41547;DHT22;27271;45.412;10.852;2022-09-09T22:22:18;17.80;99.90
41547;DHT22;27271;45.412;10.852;2022-09-09T22:25:40;17.80;99.90
41547;DHT22;27271;45.412;10.852;2022-09-09T22:29:04;17.90;99.90
41547;DHT22;27271;45.412;10.852;2022-09-09T22:32:26;17.80;99.90
41547;DHT22;27271;45.412;10.852;2022-09-09T22:35:48;17.90;99.90
41547;DHT22;27271;45.412;10.852;2022-09-09T22:39:10;17.80;99.90
41547;DHT22;27271;45.412;10.852;2022-09-09T22:42:32;17.80;99.90
41547;DHT22;27271;45.412;10.852;2022-09-09T22:45:55;17.80;99.90
41547;DHT22;27271;45.412;10.852;2022-09-09T22:49:17;17.70;99.90
41547;DHT22;27271;45.412;10.852;2022-09-09T22:52:40;17.80;99.90
41547;DHT22;27271;45.412;10.852;2022-09-09T22:56:04;17.70;99.90
41547;DHT22;27271;45.412;10.852;2022-09-09T22:59:27;17.70;99.90
41547;DHT22;27271;45.412;10.852;2022-09-09T23:02:50;17.70;99.90
41547;DHT22;27271;45.412;10.852;2022-09-09T23:06:15;17.70;99.90
41547;DHT22;27271;45.412;10.852;2022-09-09T23:09:40;17.70;99.90
41547;DHT22;27271;45.412;10.852;2022-09-09T23:13:02;17.70;99.90